sensor_id;sensor_type;location;lat;lon;timestamp;temperature;humidity
43999;DHT22;51319;52.162;5.302;2023-12-07T00:02:04;-1.20;99.90
43999;DHT22;51319;52.162;5.302;2023-12-07T00:04:31;-1.10;99.90
43999;DHT22;51319;52.162;5.302;2023-12-07T00:06:58;-1.20;99.90
43999;DHT22;51319;52.162;5.302;2023-12-07T00:09:26;-1.20;99.90
43999;DHT22;51319;52.162;5.302;2023-12-07T00:11:53;-1.20;99.90
43999;DHT22;51319;52.162;5.302;2023-12-07T00:14:20;-1.20;99.90
43999;DHT22;51319;52.162;5.302;2023-12-07T00:16:47;-1.10;99.90
43999;DHT22;51319;52.162;5.302;2023-12-07T00:19:14;-1.10;99.90
43999;DHT22;51319;52.162;5.302;2023-12-07T00:21:41;-1.20;99.90
43999;DHT22;51319;52.162;5.302;2023-12-07T00:24:08;-1.20;99.90
43999;DHT22;51319;52.162;5.302;2023-12-07T00:26:35;-1.20;99.90
43999;DHT22;51319;52.162;5.302;2023-12-07T00:29:02;-1.20;99.90
43999;DHT22;51319;52.162;5.302;2023-12-07T00:31:29;-1.20;99.90
43999;DHT22;51319;52.162;5.302;2023-12-07T00:33:56;-1.30;99.90
43999;DHT22;51319;52.162;5.302;2023-12-07T00:36:23;-1.30;99.90
43999;DHT22;51319;52.162;5.302;2023-12-07T00:38:50;-1.30;99.90
43999;DHT22;51319;52.162;5.302;2023-12-07T00:41:17;-1.40;99.90
43999;DHT22;51319;52.162;5.302;2023-12-07T00:43:44;-1.40;99.90
43999;DHT22;51319;52.162;5.302;2023-12-07T00:46:11;-1.40;99.90
43999;DHT22;51319;52.162;5.302;2023-12-07T00:48:38;-1.40;99.90
43999;DHT22;51319;52.162;5.302;2023-12-07T00:51:05;-1.40;99.90
43999;DHT22;51319;52.162;5.302;2023-12-07T00:53:33;-1.50;99.90
43999;DHT22;51319;52.162;5.302;2023-12-07T00:56:00;-1.50;99.90
43999;DHT22;51319;52.162;5.302;2023-12-07T00:58:26;-1.50;99.90
43999;DHT22;51319;52.162;5.302;2023-12-07T01:00:54;-1.50;99.90
43999;DHT22;51319;52.162;5.302;2023-12-07T01:03:21;-1.60;99.90
43999;DHT22;51319;52.162;5.302;2023-12-07T01:05:48;-1.60;99.90
43999;DHT22;51319;52.162;5.302;2023-12-07T01:08:15;-1.60;99.90
43999;DHT22;51319;52.162;5.302;2023-12-07T01:10:42;-1.60;99.90
43999;DHT22;51319;52.162;5.302;2023-12-07T01:13:09;-1.60;99.90
43999;DHT22;51319;52.162;5.302;2023-12-07T01:15:35;-1.60;99.90
43999;DHT22;51319;52.162;5.302;2023-12-07T01:18:02;-1.60;99.90
43999;DHT22;51319;52.162;5.302;2023-12-07T01:20:29;-1.60;99.90
43999;DHT22;51319;52.162;5.302;2023-12-07T01:22:56;-1.60;99.90
43999;DHT22;51319;52.162;5.302;2023-12-07T01:25:23;-1.60;99.90
43999;DHT22;51319;52.162;5.302;2023-12-07T01:27:51;-1.60;99.90
43999;DHT22;51319;52.162;5.302;2023-12-07T01:30:18;-1.60;99.90
43999;DHT22;51319;52.162;5.302;2023-12-07T01:32:45;-1.60;99.90
43999;DHT22;51319;52.162;5.302;2023-12-07T01:35:12;-1.60;99.90
43999;DHT22;51319;52.162;5.302;2023-12-07T01:37:39;-1.60;99.90
43999;DHT22;51319;52.162;5.302;2023-12-07T01:40:06;-1.70;99.90
43999;DHT22;51319;52.162;5.302;2023-12-07T01:42:37;-1.70;99.90
43999;DHT22;51319;52.162;5.302;2023-12-07T01:45:06;-1.80;99.90
43999;DHT22;51319;52.162;5.302;2023-12-07T01:47:35;-1.70;99.90
43999;DHT22;51319;52.162;5.302;2023-12-07T01:50:03;-1.70;99.90
43999;DHT22;51319;52.162;5.302;2023-12-07T01:52:31;-1.80;99.90
43999;DHT22;51319;52.162;5.302;2023-12-07T01:54:59;-1.70;99.90
43999;DHT22;51319;52.162;5.302;2023-12-07T01:57:27;-1.70;99.90
43999;DHT22;51319;52.162;5.302;2023-12-07T01:59:54;-1.70;99.90
43999;DHT22;51319;52.162;5.302;2023-12-07T02:02:21;-1.70;99.90
43999;DHT22;51319;52.162;5.302;2023-12-07T02:04:49;-1.80;99.90
43999;DHT22;51319;52.162;5.302;2023-12-07T02:07:17;-1.70;99.90
43999;DHT22;51319;52.162;5.302;2023-12-07T02:09:44;-1.70;99.90
43999;DHT22;51319;52.162;5.302;2023-12-07T02:12:11;-1.70;99.90
43999;DHT22;51319;52.162;5.302;2023-12-07T02:14:38;-1.70;99.90
43999;DHT22;51319;52.162;5.302;2023-12-07T02:17:19;-1.70;99.90
43999;DHT22;51319;52.162;5.302;2023-12-07T02:20:01;-1.70;99.90
43999;DHT22;51319;52.162;5.302;2023-12-07T02:22:39;-1.70;99.90
43999;DHT22;51319;52.162;5.302;2023-12-07T02:25:10;-1.70;99.90
43999;DHT22;51319;52.162;5.302;2023-12-07T02:27:44;-1.70;99.90
43999;DHT22;51319;52.162;5.302;2023-12-07T02:30:15;-1.70;99.90
43999;DHT22;51319;52.162;5.302;2023-12-07T02:32:43;-1.70;99.90
43999;DHT22;51319;52.162;5.302;2023-12-07T02:35:11;-1.60;99.90
43999;DHT22;51319;52.162;5.302;2023-12-07T02:37:48;-1.60;99.90
43999;DHT22;51319;52.162;5.302;2023-12-07T02:40:21;-1.50;99.90
43999;DHT22;51319;52.162;5.302;2023-12-07T02:42:49;-1.40;99.90
43999;DHT22;51319;52.162;5.302;2023-12-07T02:45:16;-1.30;99.90
43999;DHT22;51319;52.162;5.302;2023-12-07T02:47:43;-1.30;99.90
43999;DHT22;51319;52.162;5.302;2023-12-07T02:50:12;-1.30;99.90
43999;DHT22;51319;52.162;5.302;2023-12-07T02:52:40;-1.30;99.90
43999;DHT22;51319;52.162;5.302;2023-12-07T02:55:07;-1.30;99.90
43999;DHT22;51319;52.162;5.302;2023-12-07T02:57:36;-1.30;99.90
43999;DHT22;51319;52.162;5.302;2023-12-07T03:00:04;-1.30;99.90
43999;DHT22;51319;52.162;5.302;2023-12-07T03:02:35;-1.30;99.90
43999;DHT22;51319;52.162;5.302;2023-12-07T03:05:03;-1.30;99.90
43999;DHT22;51319;52.162;5.302;2023-12-07T03:07:30;-1.30;99.90
43999;DHT22;51319;52.162;5.302;2023-12-07T03:09:58;-1.30;99.90
43999;DHT22;51319;52.162;5.302;2023-12-07T03:12:24;-1.30;99.90
43999;DHT22;51319;52.162;5.302;2023-12-07T03:14:52;-1.30;99.90
43999;DHT22;51319;52.162;5.302;2023-12-07T03:17:19;-1.30;99.90
43999;DHT22;51319;52.162;5.302;2023-12-07T03:19:46;-1.30;99.90
43999;DHT22;51319;52.162;5.302;2023-12-07T03:22:13;-1.30;99.90
43999;DHT22;51319;52.162;5.302;2023-12-07T03:24:44;-1.40;99.90
43999;DHT22;51319;52.162;5.302;2023-12-07T03:27:12;-1.30;99.90
43999;DHT22;51319;52.162;5.302;2023-12-07T03:29:39;-1.30;99.90
43999;DHT22;51319;52.162;5.302;2023-12-07T03:32:06;-1.30;99.90
43999;DHT22;51319;52.162;5.302;2023-12-07T03:34:33;-1.30;99.90
43999;DHT22;51319;52.162;5.302;2023-12-07T03:37:00;-1.40;99.90
43999;DHT22;51319;52.162;5.302;2023-12-07T03:39:27;-1.40;99.90
43999;DHT22;51319;52.162;5.302;2023-12-07T03:41:56;-1.40;99.90
43999;DHT22;51319;52.162;5.302;2023-12-07T03:44:23;-1.50;99.90
43999;DHT22;51319;52.162;5.302;2023-12-07T03:46:50;-1.40;99.90
43999;DHT22;51319;52.162;5.302;2023-12-07T03:49:17;-1.50;99.90
43999;DHT22;51319;52.162;5.302;2023-12-07T03:51:44;-1.50;99.90
43999;DHT22;51319;52.162;5.302;2023-12-07T03:54:11;-1.60;99.90
43999;DHT22;51319;52.162;5.302;2023-12-07T03:56:37;-1.60;99.90
43999;DHT22;51319;52.162;5.302;2023-12-07T03:59:04;-1.60;99.90
43999;DHT22;51319;52.162;5.302;2023-12-07T04:01:32;-1.60;99.90
43999;DHT22;51319;52.162;5.302;2023-12-07T04:03:59;-1.60;99.90
43999;DHT22;51319;52.162;5.302;2023-12-07T04:06:27;-1.60;99.90
43999;DHT22;51319;52.162;5.302;2023-12-07T04:08:54;-1.60;99.90
43999;DHT22;51319;52.162;5.302;2023-12-07T04:11:21;-1.60;99.90
43999;DHT22;51319;52.162;5.302;2023-12-07T04:13:49;-1.70;99.90
43999;DHT22;51319;52.162;5.302;2023-12-07T04:16:16;-1.70;99.90
43999;DHT22;51319;52.162;5.302;2023-12-07T04:18:43;-1.70;99.90
43999;DHT22;51319;52.162;5.302;2023-12-07T04:21:10;-1.70;99.90
43999;DHT22;51319;52.162;5.302;2023-12-07T04:23:37;-1.70;99.90
43999;DHT22;51319;52.162;5.302;2023-12-07T04:26:04;-1.70;99.90
43999;DHT22;51319;52.162;5.302;2023-12-07T04:28:31;-1.60;99.90
43999;DHT22;51319;52.162;5.302;2023-12-07T04:30:58;-1.60;99.90
43999;DHT22;51319;52.162;5.302;2023-12-07T04:33:25;-1.50;99.90
43999;DHT22;51319;52.162;5.302;2023-12-07T04:35:52;-1.50;99.90
43999;DHT22;51319;52.162;5.302;2023-12-07T04:38:19;-1.50;99.90
43999;DHT22;51319;52.162;5.302;2023-12-07T04:40:46;-1.50;99.90
43999;DHT22;51319;52.162;5.302;2023-12-07T04:43:13;-1.50;99.90
43999;DHT22;51319;52.162;5.302;2023-12-07T04:45:40;-1.40;99.90
43999;DHT22;51319;52.162;5.302;2023-12-07T04:48:07;-1.40;99.90
43999;DHT22;51319;52.162;5.302;2023-12-07T04:50:34;-1.30;99.90
43999;DHT22;51319;52.162;5.302;2023-12-07T04:53:01;-1.20;99.90
43999;DHT22;51319;52.162;5.302;2023-12-07T04:55:28;-1.20;99.90
43999;DHT22;51319;52.162;5.302;2023-12-07T04:57:55;-1.20;99.90
43999;DHT22;51319;52.162;5.302;2023-12-07T05:00:22;-1.20;99.90
43999;DHT22;51319;52.162;5.302;2023-12-07T05:02:49;-1.20;99.90
43999;DHT22;51319;52.162;5.302;2023-12-07T05:05:16;-1.20;99.90
43999;DHT22;51319;52.162;5.302;2023-12-07T05:07:43;-1.10;99.90
43999;DHT22;51319;52.162;5.302;2023-12-07T05:10:10;-1.10;99.90
43999;DHT22;51319;52.162;5.302;2023-12-07T05:12:38;-1.20;99.90
43999;DHT22;51319;52.162;5.302;2023-12-07T05:15:05;-1.20;99.90
43999;DHT22;51319;52.162;5.302;2023-12-07T05:17:33;-1.30;99.90
43999;DHT22;51319;52.162;5.302;2023-12-07T05:20:00;-1.30;99.90
43999;DHT22;51319;52.162;5.302;2023-12-07T05:22:27;-1.30;99.90
43999;DHT22;51319;52.162;5.302;2023-12-07T05:24:55;-1.40;99.90
43999;DHT22;51319;52.162;5.302;2023-12-07T05:27:22;-1.40;99.90
43999;DHT22;51319;52.162;5.302;2023-12-07T05:29:49;-1.50;99.90
43999;DHT22;51319;52.162;5.302;2023-12-07T05:32:16;-1.50;99.90
43999;DHT22;51319;52.162;5.302;2023-12-07T05:34:43;-1.50;99.90
43999;DHT22;51319;52.162;5.302;2023-12-07T05:37:10;-1.60;99.90
43999;DHT22;51319;52.162;5.302;2023-12-07T05:39:37;-1.60;99.90
43999;DHT22;51319;52.162;5.302;2023-12-07T05:42:05;-1.60;99.90
43999;DHT22;51319;52.162;5.302;2023-12-07T05:44:32;-1.50;99.90
43999;DHT22;51319;52.162;5.302;2023-12-07T05:46:59;-1.40;99.90
43999;DHT22;51319;52.162;5.302;2023-12-07T05:49:26;-1.30;99.90
43999;DHT22;51319;52.162;5.302;2023-12-07T05:51:53;-1.20;99.90
43999;DHT22;51319;52.162;5.302;2023-12-07T05:54:20;-1.00;99.90
43999;DHT22;51319;52.162;5.302;2023-12-07T05:56:50;-0.90;99.90
43999;DHT22;51319;52.162;5.302;2023-12-07T05:59:17;-0.80;99.90
43999;DHT22;51319;52.162;5.302;2023-12-07T06:01:44;-0.80;99.90
43999;DHT22;51319;52.162;5.302;2023-12-07T06:04:11;-0.70;99.90
43999;DHT22;51319;52.162;5.302;2023-12-07T06:06:40;-0.70;99.90
43999;DHT22;51319;52.162;5.302;2023-12-07T06:09:07;-0.60;99.90
43999;DHT22;51319;52.162;5.302;2023-12-07T06:11:35;-0.60;99.90
43999;DHT22;51319;52.162;5.302;2023-12-07T06:14:02;-0.60;99.90
43999;DHT22;51319;52.162;5.302;2023-12-07T06:16:30;-0.50;99.90
43999;DHT22;51319;52.162;5.302;2023-12-07T06:18:57;-0.60;99.90
43999;DHT22;51319;52.162;5.302;2023-12-07T06:21:24;-0.50;99.90
43999;DHT22;51319;52.162;5.302;2023-12-07T06:23:52;-0.50;99.90
43999;DHT22;51319;52.162;5.302;2023-12-07T06:26:19;-0.50;99.90
43999;DHT22;51319;52.162;5.302;2023-12-07T06:28:46;-0.50;99.90
43999;DHT22;51319;52.162;5.302;2023-12-07T06:31:13;-0.50;99.90
43999;DHT22;51319;52.162;5.302;2023-12-07T06:33:48;-0.50;99.90
43999;DHT22;51319;52.162;5.302;2023-12-07T06:36:23;-0.50;99.90
43999;DHT22;51319;52.162;5.302;2023-12-07T06:38:51;-0.50;99.90
43999;DHT22;51319;52.162;5.302;2023-12-07T06:41:17;-0.50;99.90
43999;DHT22;51319;52.162;5.302;2023-12-07T06:43:45;-0.40;99.90
43999;DHT22;51319;52.162;5.302;2023-12-07T06:46:12;-0.50;99.90
43999;DHT22;51319;52.162;5.302;2023-12-07T06:48:40;-0.40;99.90
43999;DHT22;51319;52.162;5.302;2023-12-07T06:51:08;-0.40;99.90
43999;DHT22;51319;52.162;5.302;2023-12-07T06:53:35;-0.40;99.90
43999;DHT22;51319;52.162;5.302;2023-12-07T06:56:02;-0.40;99.90
43999;DHT22;51319;52.162;5.302;2023-12-07T06:58:29;-0.30;99.90
43999;DHT22;51319;52.162;5.302;2023-12-07T07:00:56;-0.30;99.90
43999;DHT22;51319;52.162;5.302;2023-12-07T07:03:24;-0.30;99.90
43999;DHT22;51319;52.162;5.302;2023-12-07T07:05:51;-0.30;99.90
43999;DHT22;51319;52.162;5.302;2023-12-07T07:08:18;-0.30;99.90
43999;DHT22;51319;52.162;5.302;2023-12-07T07:10:45;-0.30;99.90
43999;DHT22;51319;52.162;5.302;2023-12-07T07:13:15;-0.30;99.90
43999;DHT22;51319;52.162;5.302;2023-12-07T07:15:44;-0.30;99.90
43999;DHT22;51319;52.162;5.302;2023-12-07T07:18:11;-0.40;99.90
43999;DHT22;51319;52.162;5.302;2023-12-07T07:20:38;-0.40;99.90
43999;DHT22;51319;52.162;5.302;2023-12-07T07:23:05;-0.40;99.90
43999;DHT22;51319;52.162;5.302;2023-12-07T07:25:32;-0.40;99.90
43999;DHT22;51319;52.162;5.302;2023-12-07T07:28:02;-0.40;99.90
43999;DHT22;51319;52.162;5.302;2023-12-07T07:30:30;-0.40;99.90
43999;DHT22;51319;52.162;5.302;2023-12-07T07:32:57;-0.40;99.90
43999;DHT22;51319;52.162;5.302;2023-12-07T07:35:24;-0.40;99.90
43999;DHT22;51319;52.162;5.302;2023-12-07T07:37:53;-0.40;99.90
43999;DHT22;51319;52.162;5.302;2023-12-07T07:40:21;-0.30;99.90
43999;DHT22;51319;52.162;5.302;2023-12-07T07:42:48;-0.30;99.90
43999;DHT22;51319;52.162;5.302;2023-12-07T07:45:15;-0.30;99.90
43999;DHT22;51319;52.162;5.302;2023-12-07T07:47:43;-0.30;99.90
43999;DHT22;51319;52.162;5.302;2023-12-07T07:50:10;-0.30;99.90
43999;DHT22;51319;52.162;5.302;2023-12-07T07:52:37;-0.30;99.90
43999;DHT22;51319;52.162;5.302;2023-12-07T07:55:07;-0.30;99.90
43999;DHT22;51319;52.162;5.302;2023-12-07T07:57:34;-0.20;99.90
43999;DHT22;51319;52.162;5.302;2023-12-07T08:00:02;-0.20;99.90
43999;DHT22;51319;52.162;5.302;2023-12-07T08:02:29;-0.20;99.90
43999;DHT22;51319;52.162;5.302;2023-12-07T08:04:56;-0.20;99.90
43999;DHT22;51319;52.162;5.302;2023-12-07T08:07:24;-0.20;99.90
43999;DHT22;51319;52.162;5.302;2023-12-07T08:09:51;-0.10;99.90
43999;DHT22;51319;52.162;5.302;2023-12-07T08:12:18;-0.20;99.90
43999;DHT22;51319;52.162;5.302;2023-12-07T08:14:45;-0.20;99.90
43999;DHT22;51319;52.162;5.302;2023-12-07T08:17:13;-0.10;99.90
43999;DHT22;51319;52.162;5.302;2023-12-07T08:19:42;-0.10;99.90
43999;DHT22;51319;52.162;5.302;2023-12-07T08:22:09;-0.10;99.90
43999;DHT22;51319;52.162;5.302;2023-12-07T08:24:39;0.00;99.90
43999;DHT22;51319;52.162;5.302;2023-12-07T08:27:06;0.00;99.90
43999;DHT22;51319;52.162;5.302;2023-12-07T08:29:34;0.00;99.90
43999;DHT22;51319;52.162;5.302;2023-12-07T08:32:01;0.00;99.90
43999;DHT22;51319;52.162;5.302;2023-12-07T08:34:28;0.00;99.90
43999;DHT22;51319;52.162;5.302;2023-12-07T08:36:56;0.10;99.90
43999;DHT22;51319;52.162;5.302;2023-12-07T08:39:24;0.10;99.90
43999;DHT22;51319;52.162;5.302;2023-12-07T08:41:52;0.10;99.90
43999;DHT22;51319;52.162;5.302;2023-12-07T08:44:19;0.20;99.90
43999;DHT22;51319;52.162;5.302;2023-12-07T08:46:46;0.20;99.90
43999;DHT22;51319;52.162;5.302;2023-12-07T08:49:13;0.20;99.90
43999;DHT22;51319;52.162;5.302;2023-12-07T08:51:40;0.20;99.90
43999;DHT22;51319;52.162;5.302;2023-12-07T08:54:27;0.30;99.90
43999;DHT22;51319;52.162;5.302;2023-12-07T08:56:55;0.40;99.90
43999;DHT22;51319;52.162;5.302;2023-12-07T08:59:22;0.40;99.90
43999;DHT22;51319;52.162;5.302;2023-12-07T09:01:50;0.50;99.90
43999;DHT22;51319;52.162;5.302;2023-12-07T09:04:17;0.50;99.90
43999;DHT22;51319;52.162;5.302;2023-12-07T09:06:44;0.50;99.90
43999;DHT22;51319;52.162;5.302;2023-12-07T09:09:11;0.50;99.90
43999;DHT22;51319;52.162;5.302;2023-12-07T09:11:38;0.50;99.90
43999;DHT22;51319;52.162;5.302;2023-12-07T09:14:05;0.60;99.90
43999;DHT22;51319;52.162;5.302;2023-12-07T09:16:32;0.60;99.90
43999;DHT22;51319;52.162;5.302;2023-12-07T09:18:59;0.50;99.90
43999;DHT22;51319;52.162;5.302;2023-12-07T09:21:26;0.50;99.90
43999;DHT22;51319;52.162;5.302;2023-12-07T09:23:53;0.50;99.90
43999;DHT22;51319;52.162;5.302;2023-12-07T09:26:20;0.60;99.90
43999;DHT22;51319;52.162;5.302;2023-12-07T09:28:47;0.60;99.90
43999;DHT22;51319;52.162;5.302;2023-12-07T09:31:14;0.50;99.90
43999;DHT22;51319;52.162;5.302;2023-12-07T09:33:43;0.50;99.90
43999;DHT22;51319;52.162;5.302;2023-12-07T09:36:10;0.50;99.90
43999;DHT22;51319;52.162;5.302;2023-12-07T09:38:38;0.60;99.90
43999;DHT22;51319;52.162;5.302;2023-12-07T09:41:05;0.60;99.90
43999;DHT22;51319;52.162;5.302;2023-12-07T09:43:32;0.60;99.90
43999;DHT22;51319;52.162;5.302;2023-12-07T09:46:00;0.60;99.90
43999;DHT22;51319;52.162;5.302;2023-12-07T09:48:27;0.70;99.90
43999;DHT22;51319;52.162;5.302;2023-12-07T09:50:56;0.70;99.90
43999;DHT22;51319;52.162;5.302;2023-12-07T09:53:24;0.70;99.90
43999;DHT22;51319;52.162;5.302;2023-12-07T09:55:53;0.70;99.90
43999;DHT22;51319;52.162;5.302;2023-12-07T09:58:20;0.70;99.90
43999;DHT22;51319;52.162;5.302;2023-12-07T10:01:04;0.80;99.90
43999;DHT22;51319;52.162;5.302;2023-12-07T10:03:31;0.80;99.90
43999;DHT22;51319;52.162;5.302;2023-12-07T10:05:59;0.80;99.90
43999;DHT22;51319;52.162;5.302;2023-12-07T10:08:31;0.80;99.90
43999;DHT22;51319;52.162;5.302;2023-12-07T10:11:06;0.90;99.90
43999;DHT22;51319;52.162;5.302;2023-12-07T10:13:35;0.90;99.90
43999;DHT22;51319;52.162;5.302;2023-12-07T10:18:37;1.00;99.90
43999;DHT22;51319;52.162;5.302;2023-12-07T10:21:12;0.90;99.90
43999;DHT22;51319;52.162;5.302;2023-12-07T10:23:41;0.90;99.90
43999;DHT22;51319;52.162;5.302;2023-12-07T10:26:11;1.00;99.90
43999;DHT22;51319;52.162;5.302;2023-12-07T10:28:39;1.00;99.90
43999;DHT22;51319;52.162;5.302;2023-12-07T10:31:09;1.00;99.90
43999;DHT22;51319;52.162;5.302;2023-12-07T10:33:37;1.00;99.90
43999;DHT22;51319;52.162;5.302;2023-12-07T10:36:04;1.10;99.90
43999;DHT22;51319;52.162;5.302;2023-12-07T10:38:33;1.00;99.90
43999;DHT22;51319;52.162;5.302;2023-12-07T10:41:05;1.00;99.90
43999;DHT22;51319;52.162;5.302;2023-12-07T10:43:38;0.90;99.90
43999;DHT22;51319;52.162;5.302;2023-12-07T10:46:09;0.90;99.90
43999;DHT22;51319;52.162;5.302;2023-12-07T10:48:36;0.90;99.90
43999;DHT22;51319;52.162;5.302;2023-12-07T10:51:07;1.00;99.90
43999;DHT22;51319;52.162;5.302;2023-12-07T10:53:40;1.00;99.90
43999;DHT22;51319;52.162;5.302;2023-12-07T10:56:17;1.00;99.90
43999;DHT22;51319;52.162;5.302;2023-12-07T10:58:47;1.10;99.90
43999;DHT22;51319;52.162;5.302;2023-12-07T11:01:16;1.10;99.90
43999;DHT22;51319;52.162;5.302;2023-12-07T11:03:44;1.10;99.90
43999;DHT22;51319;52.162;5.302;2023-12-07T11:06:12;1.10;99.90
43999;DHT22;51319;52.162;5.302;2023-12-07T11:08:44;1.20;99.90
43999;DHT22;51319;52.162;5.302;2023-12-07T11:11:27;1.20;99.90
43999;DHT22;51319;52.162;5.302;2023-12-07T11:14:02;1.20;99.90
43999;DHT22;51319;52.162;5.302;2023-12-07T11:16:35;1.20;99.90
43999;DHT22;51319;52.162;5.302;2023-12-07T11:19:03;1.20;99.90
43999;DHT22;51319;52.162;5.302;2023-12-07T11:21:35;1.30;99.90
43999;DHT22;51319;52.162;5.302;2023-12-07T11:24:03;1.20;99.90
43999;DHT22;51319;52.162;5.302;2023-12-07T11:26:31;1.30;99.90
43999;DHT22;51319;52.162;5.302;2023-12-07T11:28:58;1.30;99.90
43999;DHT22;51319;52.162;5.302;2023-12-07T11:31:26;1.30;99.90
43999;DHT22;51319;52.162;5.302;2023-12-07T11:33:55;1.30;99.90
43999;DHT22;51319;52.162;5.302;2023-12-07T11:36:23;1.30;99.90
43999;DHT22;51319;52.162;5.302;2023-12-07T11:39:16;1.30;99.90
43999;DHT22;51319;52.162;5.302;2023-12-07T11:41:55;1.30;99.90
43999;DHT22;51319;52.162;5.302;2023-12-07T11:44:49;1.40;99.90
43999;DHT22;51319;52.162;5.302;2023-12-07T11:47:18;1.40;99.90
43999;DHT22;51319;52.162;5.302;2023-12-07T11:49:46;1.40;99.90
43999;DHT22;51319;52.162;5.302;2023-12-07T11:52:14;1.30;99.90
43999;DHT22;51319;52.162;5.302;2023-12-07T11:54:49;1.40;99.90
43999;DHT22;51319;52.162;5.302;2023-12-07T11:57:17;1.40;99.90
43999;DHT22;51319;52.162;5.302;2023-12-07T11:59:45;1.40;99.90
43999;DHT22;51319;52.162;5.302;2023-12-07T12:02:14;1.40;99.90
43999;DHT22;51319;52.162;5.302;2023-12-07T12:04:41;1.50;99.90
43999;DHT22;51319;52.162;5.302;2023-12-07T12:07:09;1.40;99.90
43999;DHT22;51319;52.162;5.302;2023-12-07T12:09:37;1.40;99.90
43999;DHT22;51319;52.162;5.302;2023-12-07T12:12:04;1.40;99.90
43999;DHT22;51319;52.162;5.302;2023-12-07T12:14:31;1.40;99.90
43999;DHT22;51319;52.162;5.302;2023-12-07T12:16:58;1.50;99.90
43999;DHT22;51319;52.162;5.302;2023-12-07T12:19:26;1.40;99.90
43999;DHT22;51319;52.162;5.302;2023-12-07T12:22:03;1.50;99.90
43999;DHT22;51319;52.162;5.302;2023-12-07T12:24:38;1.50;99.90
43999;DHT22;51319;52.162;5.302;2023-12-07T12:27:07;1.50;99.90
43999;DHT22;51319;52.162;5.302;2023-12-07T12:29:34;1.50;99.90
43999;DHT22;51319;52.162;5.302;2023-12-07T12:32:03;1.50;99.90
43999;DHT22;51319;52.162;5.302;2023-12-07T12:34:33;1.50;99.90
43999;DHT22;51319;52.162;5.302;2023-12-07T12:37:01;1.60;99.90
43999;DHT22;51319;52.162;5.302;2023-12-07T12:39:30;1.50;99.90
43999;DHT22;51319;52.162;5.302;2023-12-07T12:42:01;1.50;99.90
43999;DHT22;51319;52.162;5.302;2023-12-07T12:44:30;1.60;99.90
43999;DHT22;51319;52.162;5.302;2023-12-07T12:47:07;1.60;99.90
43999;DHT22;51319;52.162;5.302;2023-12-07T12:49:39;1.70;99.90
43999;DHT22;51319;52.162;5.302;2023-12-07T12:52:10;1.70;99.90
43999;DHT22;51319;52.162;5.302;2023-12-07T12:54:42;1.70;99.90
43999;DHT22;51319;52.162;5.302;2023-12-07T12:57:09;1.80;99.90
43999;DHT22;51319;52.162;5.302;2023-12-07T12:59:36;1.80;99.90
43999;DHT22;51319;52.162;5.302;2023-12-07T13:02:03;1.80;99.90
43999;DHT22;51319;52.162;5.302;2023-12-07T13:04:35;1.80;99.90
43999;DHT22;51319;52.162;5.302;2023-12-07T13:07:09;1.80;99.90
43999;DHT22;51319;52.162;5.302;2023-12-07T13:09:37;1.90;99.90
43999;DHT22;51319;52.162;5.302;2023-12-07T13:12:04;1.80;99.90
43999;DHT22;51319;52.162;5.302;2023-12-07T13:14:32;1.90;99.90
43999;DHT22;51319;52.162;5.302;2023-12-07T13:17:06;1.90;99.90
43999;DHT22;51319;52.162;5.302;2023-12-07T13:19:36;1.90;99.90
43999;DHT22;51319;52.162;5.302;2023-12-07T13:22:03;1.90;99.90
43999;DHT22;51319;52.162;5.302;2023-12-07T13:24:31;1.80;99.90
43999;DHT22;51319;52.162;5.302;2023-12-07T13:26:58;1.90;99.90
43999;DHT22;51319;52.162;5.302;2023-12-07T13:29:29;1.90;99.90
43999;DHT22;51319;52.162;5.302;2023-12-07T13:32:03;1.90;99.90
43999;DHT22;51319;52.162;5.302;2023-12-07T13:34:30;1.90;99.90
43999;DHT22;51319;52.162;5.302;2023-12-07T13:36:58;2.00;99.90
43999;DHT22;51319;52.162;5.302;2023-12-07T13:39:25;2.00;99.90
43999;DHT22;51319;52.162;5.302;2023-12-07T13:41:57;1.90;99.90
43999;DHT22;51319;52.162;5.302;2023-12-07T13:44:27;2.00;99.90
43999;DHT22;51319;52.162;5.302;2023-12-07T13:46:58;2.00;99.90
43999;DHT22;51319;52.162;5.302;2023-12-07T13:49:25;2.00;99.90
43999;DHT22;51319;52.162;5.302;2023-12-07T13:52:02;2.00;99.90
43999;DHT22;51319;52.162;5.302;2023-12-07T13:54:36;2.00;99.90
43999;DHT22;51319;52.162;5.302;2023-12-07T13:57:20;2.00;99.90
43999;DHT22;51319;52.162;5.302;2023-12-07T13:59:48;2.10;99.90
43999;DHT22;51319;52.162;5.302;2023-12-07T14:02:15;2.10;99.90
43999;DHT22;51319;52.162;5.302;2023-12-07T14:04:42;2.10;99.90
43999;DHT22;51319;52.162;5.302;2023-12-07T14:07:14;2.20;99.90
43999;DHT22;51319;52.162;5.302;2023-12-07T14:09:44;2.10;99.90
43999;DHT22;51319;52.162;5.302;2023-12-07T14:12:23;2.20;99.90
43999;DHT22;51319;52.162;5.302;2023-12-07T14:14:51;2.20;99.90
43999;DHT22;51319;52.162;5.302;2023-12-07T14:17:18;2.20;99.90
43999;DHT22;51319;52.162;5.302;2023-12-07T14:19:47;2.20;99.90
43999;DHT22;51319;52.162;5.302;2023-12-07T14:22:18;2.30;99.90
43999;DHT22;51319;52.162;5.302;2023-12-07T14:24:46;2.20;99.90
43999;DHT22;51319;52.162;5.302;2023-12-07T14:27:15;2.30;99.90
43999;DHT22;51319;52.162;5.302;2023-12-07T14:29:42;2.30;99.90
43999;DHT22;51319;52.162;5.302;2023-12-07T14:32:09;2.30;99.90
43999;DHT22;51319;52.162;5.302;2023-12-07T14:34:37;2.30;99.90
43999;DHT22;51319;52.162;5.302;2023-12-07T14:37:05;2.30;99.90
43999;DHT22;51319;52.162;5.302;2023-12-07T14:39:38;2.30;99.90
43999;DHT22;51319;52.162;5.302;2023-12-07T14:42:06;2.30;99.90
43999;DHT22;51319;52.162;5.302;2023-12-07T14:44:33;2.20;99.90
43999;DHT22;51319;52.162;5.302;2023-12-07T14:47:01;2.20;99.90
43999;DHT22;51319;52.162;5.302;2023-12-07T14:49:28;2.20;99.90
43999;DHT22;51319;52.162;5.302;2023-12-07T14:51:55;2.20;99.90
43999;DHT22;51319;52.162;5.302;2023-12-07T14:54:23;2.10;99.90
43999;DHT22;51319;52.162;5.302;2023-12-07T14:56:55;2.10;99.90
43999;DHT22;51319;52.162;5.302;2023-12-07T14:59:23;2.10;99.90
43999;DHT22;51319;52.162;5.302;2023-12-07T15:01:51;2.10;99.90
43999;DHT22;51319;52.162;5.302;2023-12-07T15:04:18;2.10;99.90
43999;DHT22;51319;52.162;5.302;2023-12-07T15:06:59;2.10;99.90
43999;DHT22;51319;52.162;5.302;2023-12-07T15:09:27;2.10;99.90
43999;DHT22;51319;52.162;5.302;2023-12-07T15:11:55;2.10;99.90
43999;DHT22;51319;52.162;5.302;2023-12-07T15:14:23;2.00;99.90
43999;DHT22;51319;52.162;5.302;2023-12-07T15:17:04;2.00;99.90
43999;DHT22;51319;52.162;5.302;2023-12-07T15:19:32;1.90;99.90
43999;DHT22;51319;52.162;5.302;2023-12-07T15:22:01;1.80;99.90
43999;DHT22;51319;52.162;5.302;2023-12-07T15:24:28;1.70;99.90
43999;DHT22;51319;52.162;5.302;2023-12-07T15:27:05;1.70;99.90
43999;DHT22;51319;52.162;5.302;2023-12-07T15:29:33;1.70;99.90
43999;DHT22;51319;52.162;5.302;2023-12-07T15:32:05;1.60;99.90
43999;DHT22;51319;52.162;5.302;2023-12-07T15:34:32;1.60;99.90
43999;DHT22;51319;52.162;5.302;2023-12-07T15:37:10;1.50;99.90
43999;DHT22;51319;52.162;5.302;2023-12-07T15:39:39;1.50;99.90
43999;DHT22;51319;52.162;5.302;2023-12-07T15:42:08;1.50;99.90
43999;DHT22;51319;52.162;5.302;2023-12-07T15:44:36;1.60;99.90
43999;DHT22;51319;52.162;5.302;2023-12-07T15:47:04;1.60;99.90
43999;DHT22;51319;52.162;5.302;2023-12-07T15:49:31;1.60;99.90